Time;durP1;ratioP1;P1;durP2;ratioP2;P2;SDS_P1;SDS_P2;PMS_P1;PMS_P2;Temp;Humidity;BMP_temperature;BMP_pressure;BME280_temperature;BME280_humidity;BME280_pressure;Samples;Min_cycle;Max_cycle;Signal;HPM_P1;HPM_P2
2023/05/21 00:01:42;;;;;;;8.73;8.13;;;;;;;;;;5031465;28;20724;-84
2023/05/21 00:04:10;;;;;;;8.55;7.95;;;;;;;;;;5029903;28;20390;-85
2023/05/21 00:06:36;;;;;;;8.60;8.00;;;;;;;;;;5032175;28;20394;-84
2023/05/21 00:09:03;;;;;;;9.60;8.90;;;;;;;;;;5032663;28;20375;-85
2023/05/21 00:11:29;;;;;;;10.90;10.10;;;;;;;;;;5029443;28;20474;-85
2023/05/21 00:13:55;;;;;;;10.00;9.30;;;;;;;;;;5025391;28;20739;-86
2023/05/21 00:16:21;;;;;;;9.55;8.90;;;;;;;;;;5031984;28;20393;-85
2023/05/21 00:18:50;;;;;;;9.97;9.27;;;;;;;;;;5031171;28;20383;-85
2023/05/21 00:21:16;;;;;;;9.13;8.43;;;;;;;;;;5032342;28;20391;-85
2023/05/21 00:23:46;;;;;;;9.35;8.63;;;;;;;;;;5027316;28;20418;-85
2023/05/21 00:26:13;;;;;;;9.10;8.50;;;;;;;;;;5032071;28;20410;-85
2023/05/21 00:28:39;;;;;;;9.57;8.88;;;;;;;;;;5015670;28;20393;-85
2023/05/21 00:31:05;;;;;;;9.30;8.68;;;;;;;;;;5020700;28;20394;-85
2023/05/21 00:33:31;;;;;;;9.20;8.52;;;;;;;;;;5027608;28;20850;-86
2023/05/21 00:35:57;;;;;;;9.73;9.03;;;;;;;;;;5031293;28;20400;-85
2023/05/21 00:38:23;;;;;;;9.30;8.60;;;;;;;;;;5031516;28;20391;-84
2023/05/21 00:40:49;;;;;;;9.60;8.93;;;;;;;;;;5031359;28;20928;-84
2023/05/21 00:43:15;;;;;;;9.05;8.35;;;;;;;;;;5032243;28;20379;-84
2023/05/21 00:45:45;;;;;;;8.90;8.30;;;;;;;;;;5031742;28;20429;-84
2023/05/21 00:48:12;;;;;;;9.02;8.43;;;;;;;;;;5031783;28;20391;-85
2023/05/21 00:50:38;;;;;;;9.43;8.75;;;;;;;;;;5032019;28;20391;-84
2023/05/21 00:53:08;;;;;;;9.20;8.60;;;;;;;;;;5031981;28;20402;-84
2023/05/21 00:55:34;;;;;;;9.90;9.20;;;;;;;;;;5031087;28;20415;-84
2023/05/21 00:58:00;;;;;;;9.32;8.73;;;;;;;;;;5031618;28;20379;-85
2023/05/21 01:00:27;;;;;;;9.50;8.70;;;;;;;;;;5031929;28;20464;-84
2023/05/21 01:02:53;;;;;;;9.07;8.40;;;;;;;;;;5031934;28;20379;-85
2023/05/21 01:05:20;;;;;;;9.80;9.00;;;;;;;;;;5031596;28;20402;-85
2023/05/21 01:07:47;;;;;;;9.77;9.07;;;;;;;;;;5031650;28;20430;-85
2023/05/21 01:10:13;;;;;;;9.48;8.77;;;;;;;;;;5018307;28;20896;-84
2023/05/21 01:12:41;;;;;;;9.15;8.50;;;;;;;;;;5031028;28;20387;-84
2023/05/21 01:15:07;;;;;;;9.45;8.65;;;;;;;;;;5030905;28;20421;-85
2023/05/21 01:17:34;;;;;;;9.52;8.82;;;;;;;;;;5030303;28;20482;-85
2023/05/21 01:20:00;;;;;;;8.85;8.15;;;;;;;;;;5031447;28;20383;-85
2023/05/21 01:22:28;;;;;;;9.30;8.50;;;;;;;;;;5031088;28;20415;-85
2023/05/21 01:24:54;;;;;;;8.73;8.20;;;;;;;;;;5031391;28;20387;-85
2023/05/21 01:27:21;;;;;;;9.75;9.02;;;;;;;;;;5022074;28;20385;-84
2023/05/21 01:29:47;;;;;;;9.63;8.93;;;;;;;;;;5026425;28;20387;-84
2023/05/21 01:32:22;;;;;;;9.77;9.07;;;;;;;;;;5031412;28;20711;-84
2023/05/21 01:35:00;;;;;;;9.95;9.15;;;;;;;;;;5031482;28;20477;-84
2023/05/21 01:37:34;;;;;;;9.85;9.15;;;;;;;;;;5030638;28;20383;-85
2023/05/21 01:40:04;;;;;;;11.55;10.55;;;;;;;;;;5024406;28;20414;-84
2023/05/21 01:42:31;;;;;;;9.77;9.07;;;;;;;;;;5031081;28;20898;-84
2023/05/21 01:44:59;;;;;;;10.45;9.65;;;;;;;;;;5031137;28;20407;-84
2023/05/21 01:47:26;;;;;;;10.35;9.65;;;;;;;;;;5026974;28;20437;-85
2023/05/21 01:49:52;;;;;;;11.85;10.90;;;;;;;;;;5024350;28;20391;-84
2023/05/21 01:52:18;;;;;;;11.32;10.32;;;;;;;;;;5026995;28;20789;-84
2023/05/21 01:54:44;;;;;;;10.20;9.50;;;;;;;;;;5030781;28;20810;-84
2023/05/21 01:57:10;;;;;;;10.43;9.63;;;;;;;;;;5028800;28;20464;-84
2023/05/21 01:59:37;;;;;;;9.98;9.18;;;;;;;;;;5026920;28;20461;-84
2023/05/21 02:02:03;;;;;;;9.68;8.98;;;;;;;;;;5030400;28;20383;-83
2023/05/21 02:04:30;;;;;;;9.65;9.00;;;;;;;;;;5029863;28;20387;-84
2023/05/21 02:06:56;;;;;;;9.52;8.82;;;;;;;;;;5030723;28;20397;-84
2023/05/21 02:09:22;;;;;;;9.27;8.57;;;;;;;;;;5026365;28;20407;-84
2023/05/21 02:11:48;;;;;;;10.40;9.57;;;;;;;;;;5024254;28;20736;-84
2023/05/21 02:14:15;;;;;;;9.52;8.82;;;;;;;;;;5032423;28;20516;-84
2023/05/21 02:16:41;;;;;;;9.20;8.50;;;;;;;;;;5032243;28;20450;-85
2023/05/21 02:19:09;;;;;;;9.00;8.40;;;;;;;;;;5031025;28;20444;-83
2023/05/21 02:21:35;;;;;;;9.52;8.82;;;;;;;;;;5033463;28;20379;-84
2023/05/21 02:24:01;;;;;;;9.13;8.40;;;;;;;;;;5033451;28;20406;-84
2023/05/21 02:26:27;;;;;;;9.98;9.20;;;;;;;;;;5033372;28;20949;-84
2023/05/21 02:28:54;;;;;;;9.43;8.80;;;;;;;;;;5025801;28;20848;-83
2023/05/21 02:31:20;;;;;;;10.45;9.65;;;;;;;;;;5028184;28;20433;-84
2023/05/21 02:33:46;;;;;;;9.07;8.48;;;;;;;;;;5033229;28;20383;-84
2023/05/21 02:36:14;;;;;;;9.82;9.13;;;;;;;;;;5033098;28;20395;-83
2023/05/21 02:38:42;;;;;;;10.20;9.50;;;;;;;;;;5033353;28;20405;-84
2023/05/21 02:41:08;;;;;;;10.00;9.27;;;;;;;;;;5033195;28;20387;-85
2023/05/21 02:43:34;;;;;;;10.70;9.98;;;;;;;;;;5032765;28;20445;-85
2023/05/21 02:46:00;;;;;;;9.98;9.30;;;;;;;;;;5033342;28;20452;-85
2023/05/21 02:48:26;;;;;;;11.18;10.27;;;;;;;;;;5033313;28;20391;-86
2023/05/21 02:50:53;;;;;;;11.55;10.63;;;;;;;;;;5028875;28;20882;-85
2023/05/21 02:53:19;;;;;;;10.27;9.50;;;;;;;;;;5033457;28;20391;-86
2023/05/21 02:55:45;;;;;;;10.10;9.40;;;;;;;;;;5033869;28;20422;-86
2023/05/21 02:58:12;;;;;;;10.48;9.77;;;;;;;;;;5034549;28;20379;-84
2023/05/21 03:00:38;;;;;;;10.10;9.38;;;;;;;;;;5027159;28;20389;-84
2023/05/21 03:03:04;;;;;;;10.30;9.60;;;;;;;;;;5029350;28;20933;-86
2023/05/21 03:05:30;;;;;;;9.70;9.00;;;;;;;;;;5029981;28;20845;-85
2023/05/21 03:07:56;;;;;;;10.00;9.30;;;;;;;;;;5027739;28;20462;-85
2023/05/21 03:10:22;;;;;;;9.45;8.75;;;;;;;;;;5032418;28;20749;-84
2023/05/21 03:12:48;;;;;;;9.70;9.10;;;;;;;;;;5032758;28;20383;-84
2023/05/21 03:15:14;;;;;;;9.38;8.60;;;;;;;;;;5030432;28;20469;-85
2023/05/21 03:17:43;;;;;;;9.45;8.65;;;;;;;;;;5029929;28;20414;-85
2023/05/21 03:20:15;;;;;;;9.10;8.50;;;;;;;;;;5027632;28;20390;-84
2023/05/21 03:22:42;;;;;;;9.05;8.35;;;;;;;;;;5031224;28;20742;-85
2023/05/21 03:25:08;;;;;;;8.60;8.00;;;;;;;;;;5032569;28;20391;-84
2023/05/21 03:27:35;;;;;;;9.10;8.50;;;;;;;;;;5027677;28;20885;-84
2023/05/21 03:30:01;;;;;;;9.15;8.45;;;;;;;;;;5031766;28;20452;-85
2023/05/21 03:32:27;;;;;;;9.60;8.90;;;;;;;;;;5029080;28;20391;-85
2023/05/21 03:34:53;;;;;;;8.97;8.37;;;;;;;;;;5031516;28;20426;-83
2023/05/21 03:37:19;;;;;;;9.80;9.00;;;;;;;;;;5032160;28;20394;-85
2023/05/21 03:39:45;;;;;;;9.80;9.10;;;;;;;;;;5031900;28;20805;-83
2023/05/21 03:42:12;;;;;;;9.40;8.80;;;;;;;;;;5032315;28;20715;-85
2023/05/21 03:44:38;;;;;;;9.52;8.93;;;;;;;;;;5024589;28;20379;-85
2023/05/21 03:47:04;;;;;;;10.90;10.05;;;;;;;;;;5032150;28;20392;-86
2023/05/21 03:49:30;;;;;;;10.88;10.05;;;;;;;;;;5031912;28;20411;-85
2023/05/21 03:51:56;;;;;;;13.13;12.13;;;;;;;;;;5019876;28;20415;-85
2023/05/21 03:54:22;;;;;;;12.32;11.40;;;;;;;;;;5028060;28;20450;-84
2023/05/21 03:56:48;;;;;;;13.50;12.50;;;;;;;;;;5032201;28;20977;-86
2023/05/21 03:59:14;;;;;;;12.38;11.38;;;;;;;;;;5027544;28;20383;-85
2023/05/21 04:01:41;;;;;;;12.25;11.35;;;;;;;;;;5031667;28;20501;-86
2023/05/21 04:04:07;;;;;;;12.95;12.05;;;;;;;;;;5027659;28;20407;-84
2023/05/21 04:06:33;;;;;;;12.23;11.33;;;;;;;;;;5031597;28;20394;-84
2023/05/21 04:09:00;;;;;;;12.23;11.43;;;;;;;;;;5027102;28;20391;-85
2023/05/21 04:11:26;;;;;;;13.23;12.23;;;;;;;;;;5027556;28;20379;-85
2023/05/21 04:13:52;;;;;;;11.88;10.98;;;;;;;;;;5031354;28;20407;-85
2023/05/21 04:16:18;;;;;;;12.77;11.80;;;;;;;;;;5015845;28;20400;-85
2023/05/21 04:18:44;;;;;;;12.20;11.30;;;;;;;;;;5027768;28;20754;-84
2023/05/21 04:21:10;;;;;;;12.27;11.38;;;;;;;;;;5027053;28;20402;-84
2023/05/21 04:23:36;;;;;;;12.70;11.80;;;;;;;;;;5028609;28;20398;-84
2023/05/21 04:26:03;;;;;;;12.73;11.73;;;;;;;;;;5031859;28;20482;-84
2023/05/21 04:28:29;;;;;;;11.68;10.68;;;;;;;;;;5031951;28;20851;-83
2023/05/21 04:30:55;;;;;;;12.63;11.73;;;;;;;;;;5027076;28;20393;-84
2023/05/21 04:33:24;;;;;;;12.90;11.90;;;;;;;;;;5029011;28;20382;-84
2023/05/21 04:35:51;;;;;;;12.98;11.98;;;;;;;;;;5027584;28;21389;-84
2023/05/21 04:38:18;;;;;;;12.02;11.20;;;;;;;;;;5038676;28;20425;-83
2023/05/21 04:40:51;;;;;;;12.38;11.48;;;;;;;;;;5017416;28;20837;-83
2023/05/21 04:43:24;;;;;;;13.50;12.40;;;;;;;;;;5030018;28;20399;-84
2023/05/21 04:45:50;;;;;;;12.00;11.20;;;;;;;;;;5032280;28;20391;-84
2023/05/21 04:48:16;;;;;;;12.52;11.63;;;;;;;;;;5031036;28;20533;-84
2023/05/21 04:50:43;;;;;;;12.50;11.60;;;;;;;;;;5032188;28;20478;-85
2023/05/21 04:53:11;;;;;;;12.80;11.90;;;;;;;;;;5030516;28;20724;-84
2023/05/21 04:55:38;;;;;;;13.18;12.15;;;;;;;;;;5030520;28;20418;-84
2023/05/21 04:58:11;;;;;;;13.75;12.73;;;;;;;;;;5031708;28;20388;-84
2023/05/21 05:00:40;;;;;;;16.35;14.93;;;;;;;;;;5030311;28;20395;-85
2023/05/21 05:03:07;;;;;;;16.17;14.87;;;;;;;;;;5031767;28;20788;-83
2023/05/21 05:05:33;;;;;;;14.45;13.35;;;;;;;;;;5030508;28;20439;-83
2023/05/21 05:07:59;;;;;;;14.75;13.55;;;;;;;;;;5029221;28;20866;-86
2023/05/21 05:10:25;;;;;;;14.60;13.50;;;;;;;;;;5031617;28;20866;-86
2023/05/21 05:12:51;;;;;;;15.75;14.55;;;;;;;;;;5030143;28;20389;-84
2023/05/21 05:15:17;;;;;;;14.50;13.40;;;;;;;;;;5013132;28;21034;-84
2023/05/21 05:17:43;;;;;;;16.52;15.13;;;;;;;;;;5012071;28;20420;-83
2023/05/21 05:20:10;;;;;;;14.45;13.45;;;;;;;;;;5020873;28;20926;-83
2023/05/21 05:22:36;;;;;;;15.43;14.23;;;;;;;;;;5027372;28;20445;-85
2023/05/21 05:25:02;;;;;;;14.73;13.63;;;;;;;;;;5011812;28;20424;-83
2023/05/21 05:27:28;;;;;;;15.82;14.27;;;;;;;;;;5011437;28;20480;-83
2023/05/21 05:29:54;;;;;;;15.03;13.93;;;;;;;;;;5017917;28;20955;-83
2023/05/21 05:32:20;;;;;;;14.73;13.52;;;;;;;;;;5022990;28;20385;-82
2023/05/21 05:34:46;;;;;;;14.23;13.13;;;;;;;;;;5029287;28;20423;-83
2023/05/21 05:37:12;;;;;;;13.57;12.68;;;;;;;;;;5022636;28;20745;-83
2023/05/21 05:39:38;;;;;;;15.60;14.30;;;;;;;;;;5028563;28;20391;-83
2023/05/21 05:42:04;;;;;;;14.52;13.52;;;;;;;;;;5022474;28;20385;-83
2023/05/21 05:44:30;;;;;;;14.98;13.77;;;;;;;;;;5023188;28;20396;-83
2023/05/21 05:46:56;;;;;;;15.90;14.70;;;;;;;;;;5019571;28;20387;-84
2023/05/21 05:49:22;;;;;;;15.10;13.90;;;;;;;;;;5029672;28;20398;-83
2023/05/21 05:51:48;;;;;;;14.52;13.35;;;;;;;;;;5016150;28;20482;-83
2023/05/21 05:54:14;;;;;;;15.13;14.02;;;;;;;;;;5009623;28;20777;-84
2023/05/21 05:56:40;;;;;;;15.43;14.23;;;;;;;;;;5028377;28;20391;-83
2023/05/21 05:59:06;;;;;;;14.90;13.70;;;;;;;;;;5025641;28;20407;-83
2023/05/21 06:01:33;;;;;;;14.33;13.33;;;;;;;;;;5028083;28;20391;-84
2023/05/21 06:03:59;;;;;;;14.80;13.60;;;;;;;;;;5025019;28;20861;-84
2023/05/21 06:06:25;;;;;;;14.82;13.68;;;;;;;;;;5023205;28;20397;-84
2023/05/21 06:08:51;;;;;;;15.35;14.20;;;;;;;;;;5028805;28;20816;-84
2023/05/21 06:11:17;;;;;;;15.33;14.10;;;;;;;;;;5019924;28;20404;-84
2023/05/21 06:13:44;;;;;;;15.18;14.00;;;;;;;;;;5026311;28;20419;-84
2023/05/21 06:16:10;;;;;;;15.82;14.52;;;;;;;;;;5029162;28;20490;-83
2023/05/21 06:18:36;;;;;;;15.55;14.32;;;;;;;;;;5034146;28;20418;-85
2023/05/21 06:21:02;;;;;;;16.60;15.20;;;;;;;;;;5031902;28;20530;-85
2023/05/21 06:23:30;;;;;;;15.50;14.30;;;;;;;;;;5028553;28;20412;-85
2023/05/21 06:25:56;;;;;;;16.00;14.88;;;;;;;;;;5024434;28;20387;-85
2023/05/21 06:28:22;;;;;;;15.85;14.55;;;;;;;;;;5030865;28;20436;-87
2023/05/21 06:30:48;;;;;;;15.53;14.23;;;;;;;;;;5019718;28;20877;-89
2023/05/21 06:33:14;;;;;;;16.05;14.85;;;;;;;;;;5029416;28;20395;-89
2023/05/21 06:35:40;;;;;;;17.02;15.73;;;;;;;;;;5014230;28;20416;-88
2023/05/21 06:38:06;;;;;;;15.73;14.63;;;;;;;;;;5020529;28;20391;-88
2023/05/21 06:40:33;;;;;;;16.30;14.98;;;;;;;;;;5020084;28;20431;-89
2023/05/21 06:42:59;;;;;;;16.45;15.25;;;;;;;;;;5025054;28;20478;-88
2023/05/21 06:45:25;;;;;;;17.25;15.75;;;;;;;;;;5023357;28;20969;-88
2023/05/21 06:47:51;;;;;;;18.13;16.67;;;;;;;;;;5028534;28;20391;-86
2023/05/21 06:50:17;;;;;;;17.02;15.63;;;;;;;;;;5019918;28;20410;-88
2023/05/21 06:52:43;;;;;;;18.48;17.08;;;;;;;;;;5026041;28;20391;-88
2023/05/21 06:55:09;;;;;;;17.70;16.20;;;;;;;;;;5031728;28;20940;-88
2023/05/21 06:57:37;;;;;;;18.40;16.80;;;;;;;;;;5019407;28;20472;-85
2023/05/21 07:00:03;;;;;;;18.60;17.10;;;;;;;;;;5027559;28;20468;-86
2023/05/21 07:02:29;;;;;;;18.33;16.80;;;;;;;;;;5025231;28;20429;-86
2023/05/21 07:04:55;;;;;;;18.90;17.40;;;;;;;;;;5026995;28;20425;-86
2023/05/21 07:07:21;;;;;;;19.85;17.88;;;;;;;;;;5031190;28;20473;-87
2023/05/21 07:09:47;;;;;;;19.13;17.52;;;;;;;;;;5022596;28;20392;-86
2023/05/21 07:12:13;;;;;;;19.77;18.15;;;;;;;;;;5015901;28;20396;-86
2023/05/21 07:14:39;;;;;;;18.75;17.35;;;;;;;;;;5018995;28;20471;-86
2023/05/21 07:17:05;;;;;;;19.27;17.80;;;;;;;;;;5014171;28;20432;-85
2023/05/21 07:19:31;;;;;;;18.67;17.17;;;;;;;;;;5015593;28;20442;-86
2023/05/21 07:21:57;;;;;;;19.02;17.55;;;;;;;;;;5022928;28;20405;-86
2023/05/21 07:24:26;;;;;;;18.67;17.23;;;;;;;;;;5033035;28;20471;-86
2023/05/21 07:26:52;;;;;;;18.48;16.92;;;;;;;;;;5025827;28;20396;-87
2023/05/21 07:29:18;;;;;;;18.90;17.30;;;;;;;;;;5013561;28;20396;-87
2023/05/21 07:31:44;;;;;;;18.67;17.07;;;;;;;;;;5013460;28;20446;-86
2023/05/21 07:34:10;;;;;;;19.85;18.08;;;;;;;;;;5019915;28;20407;-87
2023/05/21 07:36:36;;;;;;;19.55;17.85;;;;;;;;;;5031904;28;20974;-85
2023/05/21 07:39:02;;;;;;;19.10;17.58;;;;;;;;;;5014815;28;20721;-88
2023/05/21 07:41:28;;;;;;;19.55;17.98;;;;;;;;;;5026903;28;20393;-87
2023/05/21 07:43:54;;;;;;;18.77;17.27;;;;;;;;;;5026726;28;20387;-87
2023/05/21 07:46:20;;;;;;;19.85;18.25;;;;;;;;;;5032407;28;20461;-87
2023/05/21 07:48:47;;;;;;;20.27;18.48;;;;;;;;;;5023134;28;20396;-84
2023/05/21 07:51:13;;;;;;;18.48;17.08;;;;;;;;;;5026151;28;20410;-86
2023/05/21 07:53:39;;;;;;;19.67;17.90;;;;;;;;;;5023988;28;20468;-85
2023/05/21 07:56:05;;;;;;;19.08;17.48;;;;;;;;;;5029414;28;20410;-87
2023/05/21 07:58:33;;;;;;;18.17;16.70;;;;;;;;;;5015106;28;20405;-87
2023/05/21 08:01:00;;;;;;;18.83;17.35;;;;;;;;;;5021590;28;20398;-86
2023/05/21 08:03:29;;;;;;;17.97;16.57;;;;;;;;;;5032013;28;20386;-86
2023/05/21 08:05:55;;;;;;;17.70;16.30;;;;;;;;;;5032245;28;20863;-87
2023/05/21 08:08:22;;;;;;;17.52;16.13;;;;;;;;;;5031985;28;20380;-86
2023/05/21 08:10:48;;;;;;;18.35;16.67;;;;;;;;;;5026104;28;20398;-87
2023/05/21 08:13:15;;;;;;;17.03;15.57;;;;;;;;;;5028885;28;20420;-84
2023/05/21 08:15:41;;;;;;;16.05;14.75;;;;;;;;;;5031246;28;20411;-85
2023/05/21 08:18:07;;;;;;;17.95;16.45;;;;;;;;;;5030756;28;20407;-84
2023/05/21 08:20:33;;;;;;;17.08;15.73;;;;;;;;;;5020632;28;20910;-85
2023/05/21 08:22:59;;;;;;;15.85;14.63;;;;;;;;;;5011293;28;20872;-85
2023/05/21 08:25:26;;;;;;;15.02;13.93;;;;;;;;;;5011576;28;20928;-85
2023/05/21 08:27:52;;;;;;;16.08;14.77;;;;;;;;;;5021848;28;20398;-84
2023/05/21 08:30:18;;;;;;;16.17;14.88;;;;;;;;;;5012557;28;20408;-86
2023/05/21 08:32:44;;;;;;;13.93;12.93;;;;;;;;;;5012838;28;20449;-85
2023/05/21 08:35:10;;;;;;;13.90;12.90;;;;;;;;;;5011161;28;20423;-85
2023/05/21 08:37:36;;;;;;;12.80;11.90;;;;;;;;;;5023340;28;20387;-85
2023/05/21 08:40:03;;;;;;;13.40;12.48;;;;;;;;;;5014488;28;20460;-85
2023/05/21 08:42:31;;;;;;;13.07;12.18;;;;;;;;;;5012962;28;20393;-86
2023/05/21 08:44:59;;;;;;;12.80;11.90;;;;;;;;;;5026971;28;20399;-85
2023/05/21 08:47:26;;;;;;;12.57;11.55;;;;;;;;;;5012278;28;20412;-85
2023/05/21 08:49:52;;;;;;;12.90;11.80;;;;;;;;;;5011880;28;20389;-86
2023/05/21 08:52:20;;;;;;;14.05;12.95;;;;;;;;;;5012397;28;20725;-85
2023/05/21 08:54:46;;;;;;;14.00;12.93;;;;;;;;;;5012379;28;20412;-86
2023/05/21 08:57:13;;;;;;;13.30;12.18;;;;;;;;;;5012139;28;20746;-85
2023/05/21 08:59:43;;;;;;;12.75;11.93;;;;;;;;;;5012034;28;20398;-85
2023/05/21 09:02:11;;;;;;;12.63;11.47;;;;;;;;;;5012275;28;20381;-85
2023/05/21 09:04:38;;;;;;;12.93;11.85;;;;;;;;;;5022553;28;20818;-86
2023/05/21 09:07:04;;;;;;;11.73;10.77;;;;;;;;;;5016152;28;20451;-86
2023/05/21 09:09:34;;;;;;;12.00;10.90;;;;;;;;;;5012113;28;20416;-85
2023/05/21 09:12:00;;;;;;;11.65;10.70;;;;;;;;;;5012175;28;20792;-86
2023/05/21 09:14:26;;;;;;;10.90;10.20;;;;;;;;;;5011848;28;20420;-85
2023/05/21 09:16:52;;;;;;;11.73;10.82;;;;;;;;;;5011128;28;20424;-86
2023/05/21 09:19:21;;;;;;;12.02;11.02;;;;;;;;;;5025140;28;20393;-86
2023/05/21 09:21:47;;;;;;;11.18;10.25;;;;;;;;;;5011891;28;20470;-86
2023/05/21 09:24:13;;;;;;;11.25;10.40;;;;;;;;;;5011690;28;20385;-87
2023/05/21 09:26:43;;;;;;;12.25;11.18;;;;;;;;;;5020190;28;22358;-86
2023/05/21 09:29:09;;;;;;;11.80;10.70;;;;;;;;;;5027709;28;20379;-86
2023/05/21 09:31:35;;;;;;;10.85;9.95;;;;;;;;;;5027929;28;20413;-86
2023/05/21 09:34:01;;;;;;;11.25;10.45;;;;;;;;;;5016727;28;20377;-86
2023/05/21 09:36:28;;;;;;;11.55;10.65;;;;;;;;;;5025530;28;20397;-86
2023/05/21 09:38:54;;;;;;;11.93;11.02;;;;;;;;;;5011893;28;20737;-85
2023/05/21 09:41:20;;;;;;;11.07;10.27;;;;;;;;;;5011482;28;20380;-86
2023/05/21 09:43:46;;;;;;;10.93;10.13;;;;;;;;;;5024912;28;20387;-86
2023/05/21 09:46:12;;;;;;;10.90;10.13;;;;;;;;;;5031198;28;20471;-86
2023/05/21 09:48:42;;;;;;;10.43;9.63;;;;;;;;;;5019684;28;20392;-85
2023/05/21 09:51:15;;;;;;;9.90;9.20;;;;;;;;;;5011488;28;20385;-86
2023/05/21 09:53:51;;;;;;;14.55;13.02;;;;;;;;;;5011572;28;20395;-86
2023/05/21 09:56:21;;;;;;;9.80;9.00;;;;;;;;;;5011466;28;20498;-86
2023/05/21 09:58:47;;;;;;;9.57;8.88;;;;;;;;;;5011545;28;20384;-86
2023/05/21 10:01:13;;;;;;;8.98;8.30;;;;;;;;;;5017835;28;20391;-85
2023/05/21 10:03:39;;;;;;;9.82;9.07;;;;;;;;;;5029539;28;20739;-86
2023/05/21 10:06:08;;;;;;;9.35;8.65;;;;;;;;;;5011987;28;20740;-86
2023/05/21 10:08:36;;;;;;;8.90;8.20;;;;;;;;;;5010976;28;20861;-86
2023/05/21 10:11:04;;;;;;;8.43;7.90;;;;;;;;;;5011136;28;20377;-86
2023/05/21 10:13:30;;;;;;;9.90;9.15;;;;;;;;;;5011231;28;20447;-87
2023/05/21 10:15:59;;;;;;;9.40;8.68;;;;;;;;;;5023079;28;20940;-86
2023/05/21 10:18:25;;;;;;;9.40;8.70;;;;;;;;;;5017980;28;20395;-86
2023/05/21 10:20:51;;;;;;;9.10;8.50;;;;;;;;;;5016239;28;20401;-86
2023/05/21 10:23:18;;;;;;;8.93;8.32;;;;;;;;;;5014552;28;20429;-85
2023/05/21 10:25:45;;;;;;;9.50;8.60;;;;;;;;;;5011369;28;20409;-88
2023/05/21 10:28:11;;;;;;;9.60;8.90;;;;;;;;;;5028202;28;20391;-86
2023/05/21 10:30:37;;;;;;;9.98;9.30;;;;;;;;;;5023661;28;20392;-86
2023/05/21 10:33:03;;;;;;;9.90;9.20;;;;;;;;;;5014591;28;20396;-86
2023/05/21 10:35:30;;;;;;;9.52;8.82;;;;;;;;;;5022465;28;20504;-85
2023/05/21 10:37:57;;;;;;;10.20;9.50;;;;;;;;;;5020146;28;20843;-85
2023/05/21 10:40:23;;;;;;;9.55;8.85;;;;;;;;;;5014755;28;20392;-86
2023/05/21 10:43:09;;;;;;;9.70;8.80;;;;;;;;;;5014813;28;20388;-86
2023/05/21 10:45:54;;;;;;;8.90;8.03;;;;;;;;;;5010335;28;20400;-86
2023/05/21 10:48:28;;;;;;;9.23;8.30;;;;;;;;;;5014547;28;20395;-86
2023/05/21 10:51:17;;;;;;;8.90;8.27;;;;;;;;;;5014960;28;20467;-86
2023/05/21 10:53:43;;;;;;;9.10;8.45;;;;;;;;;;5014254;28;20393;-87
2023/05/21 10:56:09;;;;;;;8.30;7.60;;;;;;;;;;5014309;28;20427;-86
2023/05/21 10:58:50;;;;;;;9.00;8.30;;;;;;;;;;5013783;28;20400;-86
2023/05/21 11:01:18;;;;;;;8.32;7.72;;;;;;;;;;5014547;28;20392;-87
2023/05/21 11:03:44;;;;;;;8.40;7.70;;;;;;;;;;5026728;28;20392;-87
2023/05/21 11:06:10;;;;;;;8.52;7.88;;;;;;;;;;5014365;28;20413;-87
2023/05/21 11:08:37;;;;;;;8.37;7.67;;;;;;;;;;5017190;28;20947;-86
2023/05/21 11:11:04;;;;;;;7.97;7.47;;;;;;;;;;5032651;28;20458;-87
2023/05/21 11:13:49;;;;;;;8.80;8.20;;;;;;;;;;5021459;28;20389;-86
2023/05/21 11:16:16;;;;;;;7.90;7.30;;;;;;;;;;5019685;28;20778;-86
2023/05/21 11:18:42;;;;;;;8.20;7.60;;;;;;;;;;5020163;28;20392;-87
2023/05/21 11:21:18;;;;;;;7.30;6.80;;;;;;;;;;5014063;28;20388;-87
2023/05/21 11:23:50;;;;;;;7.75;7.10;;;;;;;;;;5020757;28;20847;-86
2023/05/21 11:26:23;;;;;;;7.82;7.22;;;;;;;;;;5019730;28;20722;-86
2023/05/21 11:29:03;;;;;;;7.50;7.00;;;;;;;;;;5033910;28;20390;-86
2023/05/21 11:31:36;;;;;;;7.77;7.17;;;;;;;;;;5033451;28;20382;-87
2023/05/21 11:34:15;;;;;;;7.70;7.10;;;;;;;;;;5019289;28;20384;-86
2023/05/21 11:36:44;;;;;;;7.75;7.15;;;;;;;;;;5029595;28;20503;-87
2023/05/21 11:39:14;;;;;;;7.22;6.72;;;;;;;;;;5022816;28;20389;-87
2023/05/21 11:41:59;;;;;;;7.17;6.57;;;;;;;;;;5013648;28;20381;-87
2023/05/21 11:44:44;;;;;;;6.30;5.90;;;;;;;;;;5015866;28;20389;-87
2023/05/21 11:47:11;;;;;;;6.30;5.90;;;;;;;;;;5013450;28;20438;-86
2023/05/21 11:49:38;;;;;;;6.57;6.07;;;;;;;;;;5013284;28;20392;-86
2023/05/21 11:52:05;;;;;;;5.93;5.47;;;;;;;;;;5013244;28;20385;-86
2023/05/21 11:54:36;;;;;;;5.28;4.90;;;;;;;;;;5013273;28;20412;-86
2023/05/21 11:57:13;;;;;;;6.15;5.55;;;;;;;;;;5028663;28;20406;-87
2023/05/21 11:59:39;;;;;;;6.28;5.85;;;;;;;;;;5022323;28;20388;-87
2023/05/21 12:02:06;;;;;;;5.88;5.28;;;;;;;;;;5025874;28;20519;-87
2023/05/21 12:04:35;;;;;;;6.22;5.72;;;;;;;;;;5013471;28;20425;-87
2023/05/21 12:07:08;;;;;;;6.75;6.15;;;;;;;;;;5025455;28;20522;-87
2023/05/21 12:09:50;;;;;;;6.45;5.90;;;;;;;;;;5013491;28;20428;-87
2023/05/21 12:12:21;;;;;;;6.85;6.28;;;;;;;;;;5012797;28;20401;-87
2023/05/21 12:14:48;;;;;;;6.47;6.03;;;;;;;;;;5012779;28;20431;-88
2023/05/21 12:17:18;;;;;;;6.40;5.80;;;;;;;;;;5012530;28;20393;-86
2023/05/21 12:19:45;;;;;;;6.32;5.75;;;;;;;;;;5012931;28;20729;-86
2023/05/21 12:22:11;;;;;;;6.10;5.70;;;;;;;;;;5021277;28;20472;-87
2023/05/21 12:24:37;;;;;;;5.57;5.17;;;;;;;;;;5017309;28;20409;-86
2023/05/21 12:27:08;;;;;;;5.40;4.97;;;;;;;;;;5017363;28;20424;-86
2023/05/21 12:29:35;;;;;;;5.37;5.07;;;;;;;;;;5026956;28;20783;-87
2023/05/21 12:32:01;;;;;;;5.55;5.15;;;;;;;;;;5013108;28;20389;-86
2023/05/21 12:34:47;;;;;;;5.15;4.75;;;;;;;;;;5012715;28;20405;-86
2023/05/21 12:37:20;;;;;;;5.10;4.80;;;;;;;;;;5012286;28;20413;-86
2023/05/21 12:39:47;;;;;;;4.85;4.55;;;;;;;;;;5037248;23;20430;-83
2023/05/21 12:42:13;;;;;;;4.90;4.50;;;;;;;;;;5036279;28;20393;-83
2023/05/21 12:44:49;;;;;;;4.50;4.20;;;;;;;;;;5039333;28;20851;-83
2023/05/21 12:47:16;;;;;;;3.38;3.15;;;;;;;;;;5045211;28;20743;-84
2023/05/21 12:49:49;;;;;;;3.70;3.40;;;;;;;;;;5044485;28;20389;-84
2023/05/21 12:52:19;;;;;;;3.80;3.50;;;;;;;;;;5023195;28;20385;-83
2023/05/21 12:54:49;;;;;;;3.95;3.70;;;;;;;;;;5051675;28;20408;-84
2023/05/21 12:57:24;;;;;;;4.25;3.95;;;;;;;;;;5050475;28;20472;-84
2023/05/21 12:59:50;;;;;;;4.55;3.78;;;;;;;;;;5051710;28;20418;-84
2023/05/21 13:02:20;;;;;;;3.20;3.00;;;;;;;;;;5051704;28;20757;-84
2023/05/21 13:04:46;;;;;;;3.55;3.33;;;;;;;;;;5051887;28;20476;-83
2023/05/21 13:07:13;;;;;;;3.40;3.20;;;;;;;;;;5051093;28;20385;-84
2023/05/21 13:09:39;;;;;;;2.67;2.47;;;;;;;;;;5051832;28;20417;-84
2023/05/21 13:12:05;;;;;;;2.35;2.15;;;;;;;;;;5051773;28;20409;-84
2023/05/21 13:14:31;;;;;;;3.33;3.13;;;;;;;;;;5051872;28;20417;-84
2023/05/21 13:16:57;;;;;;;3.27;3.03;;;;;;;;;;5051705;28;20416;-84
2023/05/21 13:19:23;;;;;;;2.85;2.60;;;;;;;;;;5037186;28;20409;-85
2023/05/21 13:21:49;;;;;;;2.10;2.00;;;;;;;;;;5045372;28;20418;-84
2023/05/21 13:24:15;;;;;;;3.00;2.80;;;;;;;;;;5048928;28;20389;-84
2023/05/21 13:26:41;;;;;;;4.55;3.17;;;;;;;;;;5051192;28;20400;-84
2023/05/21 13:29:08;;;;;;;3.65;3.15;;;;;;;;;;5051374;28;20381;-84
2023/05/21 13:31:34;;;;;;;3.65;3.35;;;;;;;;;;5051420;28;20381;-85
2023/05/21 13:34:00;;;;;;;3.72;3.50;;;;;;;;;;5036409;28;20387;-84
2023/05/21 13:36:26;;;;;;;2.58;2.38;;;;;;;;;;5036850;28;20379;-84
2023/05/21 13:38:54;;;;;;;1.80;1.70;;;;;;;;;;5051400;28;20480;-84
2023/05/21 13:41:21;;;;;;;3.30;3.10;;;;;;;;;;5051364;28;20385;-84
2023/05/21 13:43:47;;;;;;;4.10;3.80;;;;;;;;;;5042106;28;20385;-84
2023/05/21 13:46:12;;;;;;;3.88;3.53;;;;;;;;;;5042955;28;20846;-84
2023/05/21 13:48:39;;;;;;;2.58;2.38;;;;;;;;;;5036805;28;20385;-84
2023/05/21 13:51:05;;;;;;;2.70;2.58;;;;;;;;;;5051054;28;20883;-84
2023/05/21 13:53:31;;;;;;;2.47;2.27;;;;;;;;;;5050949;28;20519;-84
2023/05/21 13:55:57;;;;;;;2.47;2.27;;;;;;;;;;5050732;28;20929;-84
2023/05/21 13:58:23;;;;;;;3.03;2.73;;;;;;;;;;5050991;28;20381;-84
2023/05/21 14:00:49;;;;;;;2.83;2.63;;;;;;;;;;5051141;28;20388;-84
2023/05/21 14:03:15;;;;;;;2.78;2.58;;;;;;;;;;5053028;28;20468;-84
2023/05/21 14:05:41;;;;;;;2.70;2.50;;;;;;;;;;5055507;28;20470;-85
2023/05/21 14:08:07;;;;;;;2.58;2.38;;;;;;;;;;5054623;28;20389;-84
2023/05/21 14:10:33;;;;;;;2.78;2.58;;;;;;;;;;5055095;28;20384;-84
2023/05/21 14:12:59;;;;;;;3.17;2.88;;;;;;;;;;5055336;28;20746;-84
2023/05/21 14:15:25;;;;;;;3.10;2.90;;;;;;;;;;5054591;28;20413;-85
2023/05/21 14:17:52;;;;;;;2.90;2.70;;;;;;;;;;5054798;28;20778;-84
2023/05/21 14:20:18;;;;;;;2.97;2.78;;;;;;;;;;5051843;28;20369;-84
2023/05/21 14:22:44;;;;;;;3.13;2.88;;;;;;;;;;5045994;28;20443;-84
2023/05/21 14:25:10;;;;;;;3.05;2.80;;;;;;;;;;5054841;28;20401;-84
2023/05/21 14:27:36;;;;;;;2.90;2.60;;;;;;;;;;5054354;28;20381;-84
2023/05/21 14:30:03;;;;;;;2.90;2.70;;;;;;;;;;5054759;28;20396;-84
2023/05/21 14:32:30;;;;;;;3.07;2.77;;;;;;;;;;5054709;28;20417;-84